Time;durP1;ratioP1;P1;durP2;ratioP2;P2;SDS_P1;SDS_P2;PMS_P1;PMS_P2;Temp;Humidity;BMP_temperature;BMP_pressure;BME280_temperature;BME280_humidity;BME280_pressure;Samples;Min_cycle;Max_cycle;Signal;HPM_P1;HPM_P2
2021/06/30 00:00:07;;;;;;;5.10;3.67;;;16.40;99.90;;;;;;5090442;28;20225;-77
2021/06/30 00:02:34;;;;;;;7.38;5.13;;;16.40;99.90;;;;;;5090563;28;20205;-77
2021/06/30 00:05:01;;;;;;;6.53;4.22;;;16.40;99.90;;;;;;5090689;28;20210;-77
2021/06/30 00:07:28;;;;;;;9.55;5.43;;;16.40;99.90;;;;;;5090827;28;20209;-80
2021/06/30 00:09:55;;;;;;;7.45;5.00;;;16.40;99.90;;;;;;5089931;28;20221;-78
2021/06/30 00:12:21;;;;;;;7.88;4.78;;;16.30;99.90;;;;;;5090913;28;20684;-79
2021/06/30 00:14:51;;;;;;;4.43;3.97;;;16.30;99.90;;;;;;5090406;28;20228;-79
2021/06/30 00:17:20;;;;;;;5.80;4.57;;;16.40;99.90;;;;;;5090622;28;20201;-79
2021/06/30 00:19:47;;;;;;;4.75;4.07;;;16.50;99.90;;;;;;5089965;28;20621;-74
2021/06/30 00:22:14;;;;;;;10.05;4.22;;;16.60;99.90;;;;;;5090542;28;20201;-75
2021/06/30 00:24:41;;;;;;;6.65;4.13;;;16.70;99.90;;;;;;5090447;28;20213;-75
2021/06/30 00:27:08;;;;;;;7.75;4.20;;;16.70;99.90;;;;;;5090192;28;20287;-79
2021/06/30 00:29:35;;;;;;;6.05;4.35;;;16.80;99.90;;;;;;5094391;28;20201;-82
2021/06/30 00:32:02;;;;;;;5.28;3.97;;;16.90;99.90;;;;;;5094353;28;20290;-79
2021/06/30 00:34:30;;;;;;;6.25;4.00;;;16.80;99.90;;;;;;5094469;28;20656;-82
2021/06/30 00:36:57;;;;;;;8.25;4.25;;;16.90;99.90;;;;;;5094344;28;20259;-79
2021/06/30 00:39:24;;;;;;;7.97;4.47;;;17.00;99.90;;;;;;5094375;28;20259;-79
2021/06/30 00:41:54;;;;;;;8.02;4.18;;;16.90;99.90;;;;;;5093801;28;20209;-80
2021/06/30 00:44:21;;;;;;;5.90;3.45;;;17.00;99.90;;;;;;5094420;28;20229;-79
2021/06/30 00:46:48;;;;;;;5.93;4.63;;;17.00;99.90;;;;;;5094155;28;20257;-78
2021/06/30 00:49:15;;;;;;;5.90;4.30;;;17.10;99.90;;;;;;5093926;28;20255;-79
2021/06/30 00:51:43;;;;;;;4.90;3.55;;;17.10;99.90;;;;;;5093929;28;20672;-81
2021/06/30 00:54:10;;;;;;;4.70;3.40;;;17.10;99.90;;;;;;5094027;28;20672;-78
2021/06/30 00:56:37;;;;;;;4.28;3.67;;;17.00;99.90;;;;;;5094170;28;20286;-82
2021/06/30 00:59:04;;;;;;;4.40;3.55;;;17.00;99.90;;;;;;5094109;28;20282;-78
2021/06/30 01:01:31;;;;;;;7.88;4.03;;;17.10;99.90;;;;;;5094155;28;20266;-77
2021/06/30 01:03:58;;;;;;;4.85;2.97;;;17.10;99.90;;;;;;5093828;28;20245;-79
2021/06/30 01:06:25;;;;;;;5.07;3.13;;;17.00;99.90;;;;;;5093871;28;20274;-78
2021/06/30 01:08:54;;;;;;;3.50;3.15;;;17.00;99.90;;;;;;5091768;28;20225;-77
2021/06/30 01:11:21;;;;;;;5.85;3.67;;;16.80;99.90;;;;;;5093858;28;20201;-83
2021/06/30 01:13:48;;;;;;;4.82;3.75;;;16.80;99.90;;;;;;5093431;28;20198;-77
2021/06/30 01:16:16;;;;;;;4.22;3.40;;;16.70;99.90;;;;;;5093311;28;20233;-75
2021/06/30 01:18:44;;;;;;;4.50;4.00;;;16.60;99.90;;;;;;5093173;28;20614;-74
2021/06/30 01:21:12;;;;;;;9.38;3.92;;;16.50;99.90;;;;;;5093853;28;20263;-79
2021/06/30 01:23:41;;;;;;;8.05;3.50;;;16.40;99.90;;;;;;5093629;28;20664;-77
2021/06/30 01:26:08;;;;;;;6.72;4.53;;;16.40;99.90;;;;;;5079325;28;20251;-77
2021/06/30 01:28:36;;;;;;;5.55;3.67;;;16.40;99.90;;;;;;5093777;28;20206;-77
2021/06/30 01:31:05;;;;;;;7.07;4.38;;;16.40;99.90;;;;;;5093173;28;20210;-77
2021/06/30 01:33:33;;;;;;;4.72;3.50;;;16.30;99.90;;;;;;5093810;28;20627;-80
2021/06/30 01:36:01;;;;;;;6.18;4.07;;;16.20;99.90;;;;;;5092963;28;20274;-80
2021/06/30 01:38:30;;;;;;;12.38;4.53;;;16.10;99.90;;;;;;5093576;28;20646;-76
2021/06/30 01:40:59;;;;;;;6.07;3.88;;;16.10;99.90;;;;;;5091144;28;20267;-76
2021/06/30 01:43:26;;;;;;;5.72;3.67;;;16.00;99.90;;;;;;5093557;28;20254;-80
2021/06/30 01:45:55;;;;;;;4.82;3.55;;;16.00;99.90;;;;;;5092635;28;20266;-78
2021/06/30 01:48:22;;;;;;;5.78;3.55;;;16.00;99.90;;;;;;5093423;28;20212;-77
2021/06/30 01:50:50;;;;;;;4.30;3.50;;;15.90;99.90;;;;;;5092562;28;20209;-78
2021/06/30 01:53:18;;;;;;;5.43;4.10;;;16.00;99.90;;;;;;5092509;28;20206;-82
2021/06/30 01:55:45;;;;;;;9.68;4.70;;;16.00;99.90;;;;;;5092339;28;20312;-71
2021/06/30 01:58:17;;;;;;;8.60;3.38;;;16.00;99.90;;;;;;5092975;28;20246;-76
2021/06/30 02:00:44;;;;;;;5.68;4.50;;;15.90;99.90;;;;;;5092704;28;20301;-72
2021/06/30 02:03:11;;;;;;;6.22;3.83;;;15.90;99.90;;;;;;5092629;28;20267;-70
2021/06/30 02:05:39;;;;;;;4.45;3.53;;;15.90;99.90;;;;;;5092811;28;20250;-71
2021/06/30 02:08:07;;;;;;;5.65;4.13;;;16.00;99.90;;;;;;5092442;28;20292;-71
2021/06/30 02:10:34;;;;;;;9.02;4.68;;;16.00;99.90;;;;;;5093206;28;20258;-73
2021/06/30 02:13:01;;;;;;;7.38;3.67;;;16.10;99.90;;;;;;5092274;28;20267;-72
2021/06/30 02:15:31;;;;;;;9.05;4.53;;;16.10;99.90;;;;;;5092323;28;20827;-81
2021/06/30 02:17:59;;;;;;;8.75;4.22;;;16.30;99.90;;;;;;5092441;28;20205;-75
2021/06/30 02:20:28;;;;;;;5.10;3.25;;;16.30;99.90;;;;;;5092363;28;20213;-76
2021/06/30 02:22:57;;;;;;;7.50;4.10;;;16.30;99.90;;;;;;5091714;28;20202;-73
2021/06/30 02:25:26;;;;;;;5.85;4.68;;;16.30;99.90;;;;;;5092409;28;20217;-76
2021/06/30 02:27:54;;;;;;;8.25;4.45;;;16.40;99.90;;;;;;5092327;28;20259;-72
2021/06/30 02:30:24;;;;;;;6.38;4.05;;;16.30;99.90;;;;;;5092216;28;20673;-71
2021/06/30 02:32:53;;;;;;;4.30;3.90;;;16.30;99.90;;;;;;5092021;28;20206;-78
2021/06/30 02:35:21;;;;;;;7.00;3.83;;;16.30;99.90;;;;;;5091901;28;20229;-70
2021/06/30 02:37:49;;;;;;;5.70;5.05;;;16.20;99.90;;;;;;5091711;28;20204;-78
2021/06/30 02:40:18;;;;;;;5.70;4.38;;;16.20;99.90;;;;;;5092220;28;20205;-79
2021/06/30 02:42:46;;;;;;;7.93;4.82;;;16.30;99.90;;;;;;5091384;28;20263;-70
2021/06/30 02:45:15;;;;;;;5.85;3.60;;;16.40;99.90;;;;;;5092412;28;20209;-79
2021/06/30 02:47:44;;;;;;;7.65;4.72;;;16.50;99.90;;;;;;5091589;28;20634;-72
2021/06/30 02:50:15;;;;;;;8.50;3.58;;;16.60;99.90;;;;;;5092093;28;20262;-79
2021/06/30 02:52:43;;;;;;;8.15;4.28;;;16.70;99.90;;;;;;5091113;28;20259;-70
2021/06/30 02:55:11;;;;;;;4.57;4.13;;;16.60;99.90;;;;;;5091925;28;20202;-70
2021/06/30 02:57:38;;;;;;;4.72;3.85;;;16.50;99.90;;;;;;5091763;28;20202;-72
2021/06/30 03:00:07;;;;;;;8.90;4.28;;;16.30;99.90;;;;;;5091883;28;20201;-72
2021/06/30 03:02:34;;;;;;;6.22;4.18;;;16.20;99.90;;;;;;5091614;28;20730;-74
2021/06/30 03:05:01;;;;;;;7.63;4.00;;;16.30;99.90;;;;;;5091721;28;20279;-79
2021/06/30 03:07:30;;;;;;;6.15;4.57;;;16.30;99.90;;;;;;5091723;28;20333;-77
2021/06/30 03:09:57;;;;;;;7.35;4.47;;;16.30;99.90;;;;;;5090903;28;20213;-70
2021/06/30 03:12:24;;;;;;;9.35;4.18;;;16.30;99.90;;;;;;5091764;28;20205;-74
2021/06/30 03:14:51;;;;;;;6.15;4.90;;;16.40;99.90;;;;;;5090705;28;20753;-73
2021/06/30 03:17:18;;;;;;;8.38;4.07;;;16.40;99.90;;;;;;5091540;28;20294;-72
2021/06/30 03:19:45;;;;;;;5.97;4.28;;;16.40;99.90;;;;;;5090971;28;20742;-72
2021/06/30 03:22:11;;;;;;;9.85;5.13;;;16.40;99.90;;;;;;5090934;28;20205;-81
2021/06/30 03:24:40;;;;;;;5.95;3.90;;;16.30;99.90;;;;;;5091644;28;20645;-71
2021/06/30 03:27:07;;;;;;;5.80;3.80;;;16.20;99.90;;;;;;5091472;28;20680;-81
2021/06/30 03:29:34;;;;;;;8.25;4.47;;;16.20;99.90;;;;;;5091280;28;20634;-71
2021/06/30 03:32:01;;;;;;;7.22;4.47;;;16.20;99.90;;;;;;5090552;28;20701;-72
2021/06/30 03:34:28;;;;;;;6.80;4.15;;;16.20;99.90;;;;;;5091186;28;20971;-81
2021/06/30 03:36:55;;;;;;;8.15;3.97;;;16.00;99.90;;;;;;5090339;28;20283;-72
2021/06/30 03:39:22;;;;;;;5.82;4.13;;;16.10;99.90;;;;;;5090953;28;20255;-81
2021/06/30 03:41:50;;;;;;;7.15;3.85;;;16.10;99.90;;;;;;5090541;28;20240;-81
2021/06/30 03:44:17;;;;;;;5.40;4.22;;;16.10;99.90;;;;;;5090957;28;20210;-72
2021/06/30 03:46:44;;;;;;;6.07;4.38;;;16.00;99.90;;;;;;5090849;28;20264;-72
2021/06/30 03:49:11;;;;;;;5.00;4.15;;;15.90;99.90;;;;;;5090758;28;20205;-72
2021/06/30 03:51:38;;;;;;;8.13;4.15;;;15.90;99.90;;;;;;5091319;28;20247;-72
2021/06/30 03:54:08;;;;;;;5.13;4.63;;;16.00;99.90;;;;;;5090795;28;20213;-82
2021/06/30 03:56:35;;;;;;;5.97;4.32;;;16.10;99.90;;;;;;5091270;28;20271;-70
2021/06/30 03:59:04;;;;;;;6.20;4.50;;;16.20;99.90;;;;;;5090402;28;20205;-82
2021/06/30 04:01:31;;;;;;;6.00;3.97;;;16.30;99.90;;;;;;5090662;28;20201;-74
2021/06/30 04:04:00;;;;;;;8.30;3.72;;;16.20;99.90;;;;;;5089574;28;20540;-80
2021/06/30 04:06:28;;;;;;;8.57;4.63;;;16.20;99.90;;;;;;5090584;28;20266;-80
2021/06/30 04:08:56;;;;;;;5.07;4.03;;;16.20;99.90;;;;;;5092009;28;20223;-73
2021/06/30 04:11:23;;;;;;;7.78;4.70;;;16.10;99.90;;;;;;5090293;28;20206;-78
2021/06/30 04:13:50;;;;;;;11.50;5.03;;;16.20;99.90;;;;;;5090120;28;20205;-70
2021/06/30 04:16:18;;;;;;;8.73;4.45;;;16.20;99.90;;;;;;5090364;28;20780;-75
2021/06/30 04:18:45;;;;;;;7.22;4.38;;;16.20;99.90;;;;;;5089892;28;20202;-79
2021/06/30 04:21:12;;;;;;;6.88;5.15;;;16.30;99.90;;;;;;5090559;28;20258;-72
2021/06/30 04:23:39;;;;;;;7.32;4.75;;;16.20;99.90;;;;;;5090266;28;20282;-78
2021/06/30 04:26:06;;;;;;;6.80;4.65;;;16.20;99.90;;;;;;5090971;28;20236;-81
2021/06/30 04:28:33;;;;;;;6.30;4.68;;;16.30;99.90;;;;;;5090978;28;20434;-81
2021/06/30 04:31:00;;;;;;;5.88;3.90;;;16.30;99.90;;;;;;5090348;28;20424;-81
2021/06/30 04:33:30;;;;;;;5.90;3.88;;;16.30;99.90;;;;;;5089860;28;20800;-75
2021/06/30 04:35:58;;;;;;;9.75;4.57;;;16.20;99.90;;;;;;5089823;28;20270;-73
2021/06/30 04:38:25;;;;;;;8.63;4.43;;;16.20;99.90;;;;;;5081682;28;20756;-81
2021/06/30 04:40:53;;;;;;;7.03;3.45;;;16.20;99.90;;;;;;5090033;28;20209;-78
2021/06/30 04:43:20;;;;;;;6.45;4.22;;;16.20;99.90;;;;;;5090312;28;20201;-79
2021/06/30 04:45:48;;;;;;;6.05;3.95;;;16.20;99.90;;;;;;5089874;28;20254;-73
2021/06/30 04:48:15;;;;;;;6.72;4.13;;;16.30;99.90;;;;;;5090012;28;20202;-80
2021/06/30 04:50:44;;;;;;;9.38;4.45;;;16.30;99.90;;;;;;5089353;28;20685;-73
2021/06/30 04:53:11;;;;;;;9.48;4.35;;;16.20;99.90;;;;;;5089865;28;20210;-77
2021/06/30 04:55:38;;;;;;;7.15;5.25;;;16.30;99.90;;;;;;5090289;28;20206;-79
2021/06/30 04:58:08;;;;;;;7.78;4.15;;;16.50;99.90;;;;;;5089684;28;20209;-73
2021/06/30 05:00:35;;;;;;;7.88;4.25;;;16.50;99.90;;;;;;5089946;28;20296;-77
2021/06/30 05:03:02;;;;;;;6.55;4.35;;;16.50;99.90;;;;;;5089075;28;20679;-79
2021/06/30 05:05:29;;;;;;;8.30;4.40;;;16.50;99.90;;;;;;5089968;28;20205;-72
2021/06/30 05:07:58;;;;;;;6.15;4.18;;;16.50;99.90;;;;;;5089759;28;20279;-72
2021/06/30 05:10:25;;;;;;;4.75;4.20;;;16.50;99.90;;;;;;5078609;28;20578;-75
2021/06/30 05:12:52;;;;;;;8.63;4.30;;;16.50;99.90;;;;;;5089297;28;20700;-75
2021/06/30 05:15:22;;;;;;;6.57;4.47;;;16.50;99.90;;;;;;5092785;28;20198;-72
2021/06/30 05:17:50;;;;;;;6.80;4.88;;;16.50;99.90;;;;;;5092813;28;20775;-73
2021/06/30 05:20:17;;;;;;;7.97;4.93;;;16.50;99.90;;;;;;5093840;28;20284;-73
2021/06/30 05:22:44;;;;;;;5.65;4.30;;;16.50;99.90;;;;;;5093366;28;20210;-73
2021/06/30 05:25:14;;;;;;;4.80;4.30;;;16.60;99.90;;;;;;5093294;28;20202;-73
2021/06/30 05:27:42;;;;;;;12.07;4.47;;;16.70;99.90;;;;;;5093625;28;20214;-77
2021/06/30 05:30:10;;;;;;;4.60;4.20;;;16.70;99.90;;;;;;5093654;28;20198;-74
2021/06/30 05:32:37;;;;;;;8.23;4.28;;;16.70;99.90;;;;;;5093396;28;20202;-77
2021/06/30 05:35:05;;;;;;;8.63;4.28;;;16.70;99.90;;;;;;5093391;28;20270;-76
2021/06/30 05:37:32;;;;;;;9.93;4.72;;;16.70;99.90;;;;;;5093316;28;20226;-74
2021/06/30 05:40:00;;;;;;;6.32;4.15;;;16.80;99.90;;;;;;5092977;28;20209;-75
2021/06/30 05:42:28;;;;;;;7.03;4.53;;;17.00;99.90;;;;;;5092975;28;20631;-72
2021/06/30 05:44:55;;;;;;;5.63;4.25;;;17.00;99.90;;;;;;5092635;28;20622;-77
2021/06/30 05:47:22;;;;;;;4.45;3.95;;;16.90;99.90;;;;;;5092818;28;20676;-78
2021/06/30 05:49:49;;;;;;;10.98;4.70;;;16.90;99.90;;;;;;5092598;28;20210;-72
2021/06/30 05:52:17;;;;;;;9.77;4.75;;;16.90;99.90;;;;;;5093317;28;20274;-75
2021/06/30 05:54:44;;;;;;;7.28;4.60;;;16.90;99.90;;;;;;5092384;28;20213;-74
2021/06/30 05:57:12;;;;;;;7.90;4.80;;;16.90;99.90;;;;;;5092717;28;20275;-78
2021/06/30 05:59:40;;;;;;;7.22;4.63;;;16.90;99.90;;;;;;5092452;28;20557;-72
2021/06/30 06:02:08;;;;;;;5.25;3.78;;;17.00;99.90;;;;;;5093256;28;20197;-69
2021/06/30 06:04:35;;;;;;;6.03;3.80;;;17.00;99.90;;;;;;5092756;28;20259;-72
2021/06/30 06:07:02;;;;;;;11.20;4.65;;;16.90;99.90;;;;;;5092393;28;20628;-78
2021/06/30 06:09:29;;;;;;;5.40;4.72;;;16.90;99.90;;;;;;5092155;28;20309;-71
2021/06/30 06:11:56;;;;;;;6.28;3.92;;;16.80;99.90;;;;;;5092063;28;20721;-78
2021/06/30 06:14:23;;;;;;;6.63;3.90;;;17.00;99.90;;;;;;5091078;28;20255;-76
2021/06/30 06:16:51;;;;;;;8.35;3.50;;;17.20;99.90;;;;;;5088221;28;20256;-80
2021/06/30 06:19:21;;;;;;;8.07;3.92;;;17.10;99.90;;;;;;5092728;28;20205;-77
2021/06/30 06:21:48;;;;;;;7.38;3.05;;;17.10;99.90;;;;;;5092354;28;20310;-78
2021/06/30 06:24:15;;;;;;;4.78;4.25;;;16.90;99.90;;;;;;5092559;28;20751;-73
2021/06/30 06:26:42;;;;;;;5.88;3.90;;;16.90;99.90;;;;;;5091155;28;20205;-73
2021/06/30 06:29:10;;;;;;;6.10;3.90;;;16.90;99.90;;;;;;5090248;28;20632;-74
2021/06/30 06:31:38;;;;;;;2.83;2.40;;;16.70;99.90;;;;;;5092783;28;20205;-71
2021/06/30 06:34:06;;;;;;;3.42;2.97;;;16.80;99.90;;;;;;5092105;28;20209;-74
2021/06/30 06:36:35;;;;;;;6.15;3.63;;;16.90;99.90;;;;;;5090563;28;20217;-76
2021/06/30 06:39:04;;;;;;;5.53;3.00;;;17.20;99.90;;;;;;5088112;28;20582;-74
2021/06/30 06:41:31;;;;;;;4.55;3.00;;;17.60;99.90;;;;;;5092373;28;20202;-74
2021/06/30 06:43:58;;;;;;;4.07;2.42;;;17.70;99.90;;;;;;5091572;28;20210;-73
2021/06/30 06:46:25;;;;;;;4.57;2.92;;;17.60;99.90;;;;;;5090014;28;20213;-78
2021/06/30 06:48:52;;;;;;;3.33;2.50;;;17.40;99.90;;;;;;5089925;28;20618;-78
2021/06/30 06:51:21;;;;;;;3.83;2.47;;;17.50;99.90;;;;;;5091577;28;20206;-74
2021/06/30 06:53:48;;;;;;;5.45;2.50;;;17.60;99.90;;;;;;5090462;28;20669;-76
2021/06/30 06:56:19;;;;;;;2.58;1.98;;;17.70;99.90;;;;;;5091618;28;20674;-75
2021/06/30 06:58:46;;;;;;;2.60;2.40;;;17.70;99.90;;;;;;5090990;28;20205;-76
2021/06/30 07:01:13;;;;;;;2.63;2.42;;;17.70;99.90;;;;;;5091532;28;20205;-79
2021/06/30 07:03:40;;;;;;;5.32;3.63;;;17.70;99.90;;;;;;5092009;28;20254;-81
2021/06/30 07:06:07;;;;;;;6.95;3.33;;;17.80;99.90;;;;;;5091813;28;20205;-76
2021/06/30 07:08:35;;;;;;;5.30;3.05;;;17.80;99.90;;;;;;5091725;28;20221;-82
2021/06/30 07:11:02;;;;;;;7.05;4.40;;;18.10;99.90;;;;;;5090985;28;20739;-78
2021/06/30 07:13:29;;;;;;;7.82;4.55;;;18.30;99.90;;;;;;5091099;28;20202;-78
2021/06/30 07:15:56;;;;;;;9.30;5.47;;;18.40;99.90;;;;;;5090047;28;20205;-81
2021/06/30 07:18:23;;;;;;;6.10;4.80;;;18.30;99.90;;;;;;5090094;28;20229;-77
2021/06/30 07:20:51;;;;;;;5.72;4.30;;;18.40;99.90;;;;;;5088901;28;20213;-78
2021/06/30 07:23:18;;;;;;;8.20;4.28;;;18.40;99.90;;;;;;5090968;28;20197;-81
2021/06/30 07:25:47;;;;;;;5.68;3.85;;;18.40;99.90;;;;;;5090332;28;20262;-78
2021/06/30 07:28:14;;;;;;;5.25;3.75;;;18.40;99.90;;;;;;5091137;28;20239;-81
2021/06/30 07:30:41;;;;;;;12.07;4.88;;;18.40;99.90;;;;;;5091214;28;20198;-79
2021/06/30 07:33:08;;;;;;;9.40;5.45;;;18.50;99.90;;;;;;5089680;28;20278;-76
2021/06/30 07:35:35;;;;;;;8.30;4.43;;;18.70;99.90;;;;;;5091041;28;20668;-79
2021/06/30 07:38:02;;;;;;;8.10;4.18;;;19.00;99.90;;;;;;5089698;28;20229;-76
2021/06/30 07:40:29;;;;;;;7.22;3.90;;;19.20;99.90;;;;;;5090672;28;20206;-77
2021/06/30 07:42:58;;;;;;;10.20;4.68;;;19.40;99.90;;;;;;5090224;28;20664;-79
2021/06/30 07:45:25;;;;;;;14.85;4.53;;;19.60;99.90;;;;;;5088631;28;20210;-76
2021/06/30 07:47:52;;;;;;;7.90;4.47;;;19.70;99.90;;;;;;5088467;28;20205;-79
2021/06/30 07:50:19;;;;;;;5.15;3.65;;;19.80;99.90;;;;;;5090325;28;20209;-76
2021/06/30 07:52:48;;;;;;;3.92;3.15;;;19.70;99.90;;;;;;5090337;28;20209;-78
2021/06/30 07:55:15;;;;;;;5.65;3.13;;;19.80;99.90;;;;;;5090294;28;20202;-78
2021/06/30 07:57:42;;;;;;;3.10;2.78;;;20.00;99.90;;;;;;5089596;28;20237;-77
2021/06/30 08:00:12;;;;;;;4.10;3.15;;;19.80;99.90;;;;;;5090555;28;20676;-77
2021/06/30 08:02:39;;;;;;;4.45;2.50;;;19.80;99.90;;;;;;5090770;28;20278;-77
2021/06/30 08:05:07;;;;;;;6.32;3.35;;;19.90;99.90;;;;;;5090358;28;20313;-77
2021/06/30 08:07:34;;;;;;;4.00;2.40;;;20.10;99.90;;;;;;5090818;28;20205;-77
2021/06/30 08:10:01;;;;;;;5.85;3.08;;;20.20;99.90;;;;;;5089755;28;20653;-78
2021/06/30 08:12:28;;;;;;;5.13;2.88;;;20.20;99.90;;;;;;5090083;28;20700;-78
2021/06/30 08:14:55;;;;;;;3.15;2.58;;;20.20;99.90;;;;;;5088779;28;20669;-77
2021/06/30 08:17:23;;;;;;;2.58;2.30;;;20.20;99.90;;;;;;5090357;28;20657;-78
2021/06/30 08:19:50;;;;;;;3.10;2.50;;;20.40;99.90;;;;;;5089442;28;20217;-77
2021/06/30 08:22:17;;;;;;;4.60;3.22;;;20.40;99.90;;;;;;5090328;28;20271;-77
2021/06/30 08:24:45;;;;;;;3.65;2.85;;;20.60;99.90;;;;;;5089835;28;20202;-77
2021/06/30 08:27:13;;;;;;;6.53;3.13;;;20.80;99.90;;;;;;5089358;28;20213;-76
2021/06/30 08:29:43;;;;;;;4.35;2.72;;;21.00;99.90;;;;;;5090177;28;20214;-78
2021/06/30 08:32:10;;;;;;;4.45;2.80;;;21.50;99.90;;;;;;5086577;28;20205;-76
2021/06/30 08:34:38;;;;;;;3.65;2.55;;;21.30;99.90;;;;;;5090611;28;20209;-74
2021/06/30 08:37:07;;;;;;;4.07;2.60;;;21.20;99.90;;;;;;5086843;28;20294;-81
2021/06/30 08:39:35;;;;;;;2.67;2.35;;;21.40;99.90;;;;;;5089915;28;20223;-83
2021/06/30 08:42:03;;;;;;;2.85;2.63;;;21.90;99.90;;;;;;5082516;28;20267;-83
2021/06/30 08:44:30;;;;;;;3.13;2.42;;;21.70;99.90;;;;;;5088847;28;20213;-82
2021/06/30 08:46:58;;;;;;;6.80;2.95;;;21.90;99.90;;;;;;5089886;28;20201;-83
2021/06/30 08:49:29;;;;;;;4.70;2.33;;;21.70;99.90;;;;;;5091412;28;20669;-81
2021/06/30 08:51:58;;;;;;;5.38;2.50;;;21.70;99.90;;;;;;5093826;28;20218;-77
2021/06/30 08:54:26;;;;;;;4.30;2.58;;;21.90;99.90;;;;;;5093692;28;20201;-75
2021/06/30 08:56:53;;;;;;;5.50;3.28;;;22.20;99.90;;;;;;5093652;28;20673;-73
2021/06/30 08:59:21;;;;;;;5.05;3.03;;;22.40;99.90;;;;;;5093389;28;20210;-75
2021/06/30 09:01:48;;;;;;;5.70;2.85;;;22.80;99.90;;;;;;5081936;28;20206;-74
2021/06/30 09:04:15;;;;;;;5.93;2.85;;;22.50;99.90;;;;;;5094185;28;20201;-76
2021/06/30 09:06:42;;;;;;;4.30;2.70;;;22.80;99.90;;;;;;5093496;28;20201;-74
2021/06/30 09:09:13;;;;;;;6.35;2.65;;;22.10;99.90;;;;;;5093552;28;20274;-74
2021/06/30 09:11:41;;;;;;;3.83;2.53;;;22.10;99.90;;;;;;5093589;28;20209;-74
2021/06/30 09:14:31;;;;;;;2.72;2.00;;;22.40;99.90;;;;;;5094502;28;20205;-73
2021/06/30 09:17:15;;;;;;;2.63;1.95;;;23.10;99.90;;;;;;5092437;28;20608;-75
2021/06/30 09:19:57;;;;;;;3.67;1.88;;;24.00;99.90;;;;;;5093353;28;20288;-74
2021/06/30 09:22:27;;;;;;;5.47;3.38;;;23.60;99.90;;;;;;5093512;28;20677;-77
2021/06/30 09:24:57;;;;;;;2.72;2.47;;;22.60;99.90;;;;;;5093516;28;20209;-74
2021/06/30 09:27:39;;;;;;;2.58;2.13;;;22.70;99.90;;;;;;5093797;28;20247;-74
2021/06/30 09:30:08;;;;;;;2.38;2.13;;;22.80;99.90;;;;;;5093897;28;20213;-75
2021/06/30 09:32:35;;;;;;;5.15;2.58;;;23.30;99.90;;;;;;5093971;28;20197;-77
2021/06/30 09:35:19;;;;;;;2.97;2.33;;;24.70;99.90;;;;;;5093257;28;20292;-75
2021/06/30 09:37:48;;;;;;;3.65;2.35;;;23.90;99.90;;;;;;5079057;28;20317;-76
2021/06/30 09:40:16;;;;;;;3.25;2.85;;;22.80;99.90;;;;;;5093532;28;20210;-74
2021/06/30 09:42:44;;;;;;;4.60;2.38;;;22.10;99.90;;;;;;5093086;28;20201;-75
2021/06/30 09:45:13;;;;;;;3.33;1.65;;;22.50;99.90;;;;;;5093584;28;20292;-76
2021/06/30 09:47:48;;;;;;;2.28;1.92;;;22.20;99.90;;;;;;5093289;28;20205;-76
2021/06/30 09:50:16;;;;;;;2.13;1.85;;;21.70;99.90;;;;;;5093359;28;20200;-73
2021/06/30 09:52:45;;;;;;;2.55;2.13;;;21.80;99.90;;;;;;5092224;28;20212;-74
2021/06/30 09:55:27;;;;;;;3.33;2.70;;;21.90;99.90;;;;;;5093315;28;20290;-76
2021/06/30 09:57:55;;;;;;;2.78;1.70;;;22.40;99.90;;;;;;5092456;28;20236;-74
2021/06/30 10:00:24;;;;;;;1.48;1.38;;;22.30;99.90;;;;;;5090673;28;20733;-78
2021/06/30 10:02:51;;;;;;;6.53;3.08;;;21.90;99.90;;;;;;5092588;28;20210;-77
2021/06/30 10:05:29;;;;;;;4.20;2.30;;;21.60;99.90;;;;;;5092249;28;20217;-74
2021/06/30 10:08:09;;;;;;;4.30;2.35;;;21.30;99.90;;;;;;5090484;28;20267;-78
2021/06/30 10:10:38;;;;;;;3.42;2.03;;;21.10;99.90;;;;;;5089357;28;20201;-76
2021/06/30 10:13:05;;;;;;;2.83;1.83;;;21.10;99.90;;;;;;5092437;28;20259;-76
2021/06/30 10:15:34;;;;;;;2.17;1.95;;;21.10;99.90;;;;;;5092121;28;20278;-76
2021/06/30 10:18:03;;;;;;;2.70;1.75;;;21.40;99.90;;;;;;5092285;28;20616;-76
2021/06/30 10:20:30;;;;;;;2.03;1.83;;;21.70;99.90;;;;;;5095023;28;20204;-73
2021/06/30 10:22:57;;;;;;;4.22;3.10;;;22.10;99.90;;;;;;5091997;28;20202;-74
2021/06/30 10:25:24;;;;;;;3.63;2.40;;;22.20;99.90;;;;;;5091561;28;20217;-75
2021/06/30 10:27:54;;;;;;;2.80;2.00;;;;;;;;;;5088291;28;20734;-75
2021/06/30 10:30:22;;;;;;;2.42;1.60;;;22.10;99.90;;;;;;5090718;28;20210;-77
2021/06/30 10:32:57;;;;;;;2.25;1.50;;;22.20;99.90;;;;;;5090948;28;20669;-76
2021/06/30 10:35:25;;;;;;;3.88;2.03;;;22.20;99.90;;;;;;5091990;28;20225;-75
2021/06/30 10:37:54;;;;;;;2.00;1.88;;;22.20;99.90;;;;;;5091307;28;20316;-76
2021/06/30 10:40:22;;;;;;;2.38;2.03;;;22.20;99.90;;;;;;5091664;28;20202;-75
2021/06/30 10:43:05;;;;;;;5.20;2.45;;;22.40;99.90;;;;;;5090957;28;20205;-75
2021/06/30 10:45:33;;;;;;;3.75;1.85;;;22.70;99.90;;;;;;5091458;28;20211;-74
2021/06/30 10:48:04;;;;;;;3.00;1.65;;;22.40;99.90;;;;;;5090229;28;20214;-75
2021/06/30 10:50:41;;;;;;;2.58;1.92;;;22.60;99.90;;;;;;5091668;28;20205;-75
2021/06/30 10:53:36;;;;;;;1.67;1.50;;;22.90;99.90;;;;;;5091254;28;20201;-75
2021/06/30 10:56:06;;;;;;;3.45;1.80;;;23.00;99.90;;;;;;5091561;28;20232;-75
2021/06/30 10:58:35;;;;;;;3.05;2.15;;;23.70;99.90;;;;;;5092117;28;20217;-76
2021/06/30 11:01:09;;;;;;;1.92;1.42;;;24.10;99.90;;;;;;5091161;28;20209;-74
2021/06/30 11:03:37;;;;;;;1.98;1.58;;;23.50;99.90;;;;;;5092238;28;20278;-75
2021/06/30 11:06:28;;;;;;;1.85;1.20;;;23.60;99.90;;;;;;5090142;28;20292;-75
2021/06/30 11:09:02;;;;;;;4.28;2.55;;;23.20;99.90;;;;;;5090226;28;20255;-75
2021/06/30 11:12:03;;;;;;;2.10;1.88;;;23.30;99.90;;;;;;5089815;28;20209;-73
2021/06/30 11:14:44;;;;;;;3.08;1.73;;;23.20;99.90;;;;;;5090629;28;20284;-74
2021/06/30 11:17:12;;;;;;;2.33;1.73;;;23.20;99.90;;;;;;5090909;28;20201;-75
2021/06/30 11:19:43;;;;;;;5.28;2.28;;;23.60;99.90;;;;;;5089453;28;20228;-75
2021/06/30 11:22:28;;;;;;;2.30;1.77;;;23.50;99.90;;;;;;5088902;28;20734;-75
2021/06/30 11:24:57;;;;;;;2.05;1.85;;;23.60;99.90;;;;;;5087255;28;20207;-75
2021/06/30 11:27:51;;;;;;;2.08;1.98;;;24.20;99.90;;;;;;5090592;28;20201;-75
2021/06/30 11:30:35;;;;;;;2.05;1.90;;;24.60;99.90;;;;;;5029632;28;20210;-80
2021/06/30 11:33:02;;;;;;;3.05;2.30;;;23.40;99.90;;;;;;5082448;28;20210;-76
2021/06/30 11:35:34;;;;;;;2.45;2.17;;;22.60;99.90;;;;;;5090830;28;20202;-76
2021/06/30 11:38:13;;;;;;;1.77;1.67;;;22.90;99.90;;;;;;5090720;28;20287;-77
2021/06/30 11:40:46;;;;;;;3.10;1.95;;;23.90;99.90;;;;;;5090957;28;20212;-76
2021/06/30 11:43:16;;;;;;;2.25;1.70;;;23.70;99.90;;;;;;5091017;28;20262;-76
2021/06/30 11:45:45;;;;;;;2.88;1.85;;;23.70;99.90;;;;;;5090874;28;20213;-74
2021/06/30 11:48:13;;;;;;;1.88;1.77;;;22.90;99.90;;;;;;5092381;28;20205;-76
2021/06/30 11:50:54;;;;;;;2.25;1.80;;;23.00;99.90;;;;;;5090277;28;20209;-77
2021/06/30 11:53:45;;;;;;;3.33;1.83;;;23.20;99.90;;;;;;5090743;28;20230;-77
2021/06/30 11:56:14;;;;;;;2.67;1.73;;;23.30;99.90;;;;;;5090215;28;20251;-76
2021/06/30 11:58:44;;;;;;;5.38;2.55;;;22.80;99.90;;;;;;5088431;28;20225;-75
2021/06/30 12:01:25;;;;;;;2.13;1.92;;;22.50;99.90;;;;;;5087157;28;20255;-78
2021/06/30 12:04:22;;;;;;;3.55;1.83;;;22.60;99.90;;;;;;5090138;28;20218;-74
2021/06/30 12:06:54;;;;;;;3.50;2.20;;;23.30;99.90;;;;;;5087495;28;20205;-73
2021/06/30 12:09:23;;;;;;;2.40;1.65;;;23.00;99.90;;;;;;5089833;28;20702;-74
2021/06/30 12:11:53;;;;;;;2.15;1.90;;;22.80;99.90;;;;;;5090028;28;20205;-72
2021/06/30 12:14:22;;;;;;;1.88;1.65;;;23.20;99.90;;;;;;5090030;28;20197;-74
2021/06/30 12:16:56;;;;;;;2.42;1.85;;;23.00;99.90;;;;;;5090296;28;20293;-73
2021/06/30 12:19:34;;;;;;;3.65;2.03;;;23.30;99.90;;;;;;5090405;28;20301;-74
2021/06/30 12:22:02;;;;;;;3.60;1.83;;;23.40;99.90;;;;;;5089479;28;20216;-74
2021/06/30 12:24:29;;;;;;;2.70;1.75;;;23.90;99.90;;;;;;5089554;28;20587;-74
2021/06/30 12:27:05;;;;;;;3.08;2.00;;;24.30;99.90;;;;;;5089848;28;20217;-75
2021/06/30 12:29:34;;;;;;;4.60;1.40;;;24.00;99.90;;;;;;5090027;28;20266;-75
2021/06/30 12:32:04;;;;;;;2.58;1.73;;;23.80;99.90;;;;;;5089225;28;20705;-74
2021/06/30 12:34:31;;;;;;;3.08;2.58;;;23.70;99.90;;;;;;5090333;28;20661;-75
2021/06/30 12:36:59;;;;;;;2.15;1.77;;;23.50;99.90;;;;;;5090126;28;20263;-74
2021/06/30 12:39:29;;;;;;;2.75;2.30;;;23.60;99.90;;;;;;5077656;28;20225;-74
2021/06/30 12:42:01;;;;;;;2.75;1.80;;;23.70;99.90;;;;;;5089829;28;20201;-75
2021/06/30 12:44:30;;;;;;;1.75;1.55;;;23.50;99.90;;;;;;5090348;28;20256;-74
2021/06/30 12:47:11;;;;;;;2.53;2.00;;;24.00;99.90;;;;;;5089673;28;20568;-74
2021/06/30 12:49:39;;;;;;;3.28;1.92;;;24.40;99.90;;;;;;5077963;28;20270;-74
2021/06/30 12:52:19;;;;;;;2.35;2.00;;;23.70;99.90;;;;;;5090101;28;20653;-73
2021/06/30 12:55:03;;;;;;;3.80;2.47;;;23.60;99.90;;;;;;5089701;28;20194;-75
2021/06/30 12:57:30;;;;;;;2.25;2.05;;;23.30;99.90;;;;;;5089860;28;20205;-74